createdAt,value
2022-09-24T00:02:26.898Z,2.60
2022-09-24T00:04:56.429Z,2.47
2022-09-24T00:07:24.772Z,2.13
2022-09-24T00:09:52.993Z,2.70
2022-09-24T00:12:21.827Z,2.17
2022-09-24T00:14:50.130Z,2.73
2022-09-24T00:17:18.635Z,3.20
2022-09-24T00:19:46.727Z,2.43
2022-09-24T00:22:16.101Z,2.30
2022-09-24T00:25:02.571Z,2.40
2022-09-24T00:27:30.981Z,2.47
2022-09-24T00:29:59.084Z,2.53
2022-09-24T00:32:27.476Z,2.80
2022-09-24T00:34:55.895Z,2.40
2022-09-24T00:37:26.328Z,2.43
2022-09-24T00:39:54.493Z,2.50
2022-09-24T00:42:22.859Z,2.40
2022-09-24T00:44:57.991Z,2.80
2022-09-24T00:47:35.967Z,2.30
2022-09-24T00:50:15.694Z,2.70
2022-09-24T00:52:52.616Z,2.60
2022-09-24T00:55:25.145Z,2.57
2022-09-24T00:57:58.113Z,2.60
2022-09-24T01:00:27.958Z,2.20
2022-09-24T01:03:02.950Z,2.53
2022-09-24T01:05:31.814Z,2.70
2022-09-24T01:08:01.428Z,2.97
2022-09-24T01:10:51.483Z,2.17
2022-09-24T01:13:43.329Z,2.70
2022-09-24T01:16:24.065Z,2.60
2022-09-24T01:19:09.562Z,2.50
2022-09-24T01:21:47.940Z,2.60
2022-09-24T01:24:48.862Z,2.30
2022-09-24T01:27:23.124Z,2.40
2022-09-24T01:30:07.788Z,2.40
2022-09-24T01:32:42.385Z,2.47
2022-09-24T01:35:21.515Z,2.73
2022-09-24T01:37:57.219Z,2.77
2022-09-24T01:40:28.034Z,2.63
2022-09-24T01:43:01.123Z,2.40
2022-09-24T01:45:32.586Z,2.80
2022-09-24T01:48:02.693Z,2.77
2022-09-24T01:50:40.448Z,2.90
2022-09-24T01:53:17.141Z,2.80
2022-09-24T01:55:52.213Z,2.70
2022-09-24T01:58:29.262Z,2.50
2022-09-24T02:01:09.277Z,2.63
2022-09-24T02:03:44.991Z,2.60
2022-09-24T02:06:22.062Z,3.00
2022-09-24T02:08:50.549Z,2.80
2022-09-24T02:11:22.712Z,2.60
2022-09-24T02:13:58.317Z,3.33
2022-09-24T02:16:32.129Z,2.70
2022-09-24T02:19:07.140Z,3.30
2022-09-24T02:21:39.243Z,2.87
2022-09-24T02:24:15.136Z,2.87
2022-09-24T02:26:44.325Z,3.40
2022-09-24T02:29:14.102Z,3.17
2022-09-24T02:31:49.199Z,3.27
2022-09-24T02:34:26.356Z,3.00
2022-09-24T02:37:00.975Z,3.00
2022-09-24T02:39:29.742Z,3.83
2022-09-24T02:41:59.631Z,3.10
2022-09-24T02:44:28.141Z,3.17
2022-09-24T02:46:58.496Z,3.10
2022-09-24T02:49:27.299Z,2.53
2022-09-24T02:51:55.689Z,2.90
2022-09-24T02:54:25.364Z,3.43
2022-09-24T02:56:54.628Z,2.27
2022-09-24T02:59:23.139Z,3.10
2022-09-24T03:01:51.454Z,3.20
2022-09-24T03:04:21.932Z,3.13
2022-09-24T03:06:50.589Z,2.60
2022-09-24T03:09:18.609Z,3.10
2022-09-24T03:11:47.966Z,3.07
2022-09-24T03:14:16.090Z,2.77
2022-09-24T03:16:44.250Z,2.93
2022-09-24T03:19:12.622Z,2.90
2022-09-24T03:21:42.013Z,3.10
2022-09-24T03:24:11.103Z,3.07
2022-09-24T03:26:39.782Z,3.57
2022-09-24T03:29:08.504Z,2.93
2022-09-24T03:31:35.608Z,2.53
2022-09-24T03:34:04.257Z,3.00
2022-09-24T03:36:32.371Z,3.17
2022-09-24T03:39:02.240Z,2.70
2022-09-24T03:41:30.640Z,2.57
2022-09-24T03:43:58.673Z,2.70
2022-09-24T03:46:28.397Z,2.80
2022-09-24T03:49:00.129Z,2.33
2022-09-24T03:51:29.075Z,2.57
2022-09-24T03:53:57.364Z,2.70
2022-09-24T03:56:27.489Z,2.47
2022-09-24T03:58:55.987Z,2.50
2022-09-24T04:01:24.259Z,1.93
2022-09-24T04:03:52.543Z,2.63
2022-09-24T04:06:25.461Z,2.43
2022-09-24T04:08:55.504Z,2.20
2022-09-24T04:11:25.380Z,2.23
2022-09-24T04:13:54.759Z,2.23
2022-09-24T04:16:23.507Z,2.37
2022-09-24T04:18:51.597Z,2.03
2022-09-24T04:21:19.640Z,2.10
2022-09-24T04:23:47.712Z,2.50
2022-09-24T04:26:16.351Z,4.20
2022-09-24T04:28:44.587Z,3.63
2022-09-24T04:31:14.177Z,2.60
2022-09-24T04:33:42.673Z,2.20
2022-09-24T04:36:11.462Z,2.73
2022-09-24T04:38:39.507Z,3.20
2022-09-24T04:41:08.579Z,6.30
2022-09-24T04:43:37.755Z,5.03
2022-09-24T04:46:09.286Z,4.50
2022-09-24T04:48:39.625Z,4.67
2022-09-24T04:51:09.067Z,5.00
2022-09-24T04:53:38.769Z,4.93
2022-09-24T04:56:12.350Z,4.27
2022-09-24T04:58:41.214Z,3.63
2022-09-24T05:01:09.873Z,3.13
2022-09-24T05:03:39.280Z,3.00
2022-09-24T05:06:08.048Z,3.30
2022-09-24T05:08:36.361Z,2.77
2022-09-24T05:11:04.600Z,4.63
2022-09-24T05:13:32.637Z,3.90
2022-09-24T05:16:01.409Z,2.77
2022-09-24T05:18:30.340Z,2.90
2022-09-24T05:20:59.735Z,3.40
2022-09-24T05:23:27.747Z,3.40
2022-09-24T05:26:13.552Z,3.10
2022-09-24T05:28:42.941Z,2.70
2022-09-24T05:31:11.733Z,4.40
2022-09-24T05:33:40.251Z,4.00
2022-09-24T05:36:09.723Z,4.30
2022-09-24T05:38:41.466Z,3.67
2022-09-24T05:41:11.053Z,5.00
2022-09-24T05:43:39.349Z,5.90
2022-09-24T05:46:07.997Z,6.13
2022-09-24T05:48:36.276Z,5.50
2022-09-24T05:51:05.654Z,6.03
2022-09-24T05:53:35.497Z,5.53
2022-09-24T05:56:04.118Z,7.47
2022-09-24T05:58:32.678Z,6.63
2022-09-24T06:01:01.916Z,5.33
2022-09-24T06:03:31.764Z,4.97
2022-09-24T06:06:02.102Z,5.10
2022-09-24T06:08:33.607Z,4.50
2022-09-24T06:11:06.772Z,5.10
2022-09-24T06:13:35.142Z,5.77
2022-09-24T06:16:04.626Z,4.90
2022-09-24T06:18:35.738Z,4.67
2022-09-24T06:21:05.241Z,4.77
2022-09-24T06:23:33.542Z,3.90
2022-09-24T06:26:04.222Z,3.60
2022-09-24T06:28:32.496Z,4.83
2022-09-24T06:31:02.113Z,4.00
2022-09-24T06:33:30.585Z,3.40
2022-09-24T06:36:02.701Z,3.47
2022-09-24T06:38:32.446Z,3.27
2022-09-24T06:41:05.074Z,4.07
2022-09-24T06:43:34.934Z,4.20
2022-09-24T06:46:03.593Z,3.63
2022-09-24T06:48:32.698Z,4.07
2022-09-24T06:51:00.958Z,4.43
2022-09-24T06:53:29.365Z,3.83
2022-09-24T06:56:03.451Z,3.07
2022-09-24T06:58:32.128Z,3.00
2022-09-24T07:01:03.668Z,2.97
2022-09-24T07:03:34.496Z,2.60
2022-09-24T07:06:06.065Z,2.83
2022-09-24T07:08:35.690Z,3.27
2022-09-24T07:11:06.349Z,3.80
2022-09-24T07:13:34.438Z,3.77
2022-09-24T07:16:03.472Z,4.50
2022-09-24T07:18:32.211Z,4.00
2022-09-24T07:21:00.216Z,3.03
2022-09-24T07:23:28.465Z,3.20
2022-09-24T07:25:58.345Z,3.47
2022-09-24T07:28:28.008Z,3.77
2022-09-24T07:31:00.668Z,3.87
2022-09-24T07:33:32.609Z,3.00
2022-09-24T07:36:00.684Z,3.17
2022-09-24T07:38:29.262Z,3.27
2022-09-24T07:40:59.542Z,2.77
2022-09-24T07:43:29.456Z,2.93
2022-09-24T07:45:58.137Z,2.73
2022-09-24T07:48:26.636Z,2.97
2022-09-24T07:50:54.924Z,2.70
2022-09-24T07:53:23.690Z,3.20
2022-09-24T07:55:52.608Z,3.10
2022-09-24T07:58:20.791Z,3.57
2022-09-24T08:00:50.280Z,3.13
2022-09-24T08:03:18.572Z,3.00
2022-09-24T08:05:47.778Z,2.53
2022-09-24T08:08:15.956Z,2.50
2022-09-24T08:10:45.019Z,2.87
2022-09-24T08:13:14.216Z,2.73
2022-09-24T08:15:42.353Z,2.80
2022-09-24T08:18:11.953Z,3.80
2022-09-24T08:20:40.541Z,5.40
2022-09-24T08:23:10.967Z,4.73
2022-09-24T08:25:39.570Z,3.47
2022-09-24T08:28:10.695Z,2.73
2022-09-24T08:30:40.043Z,5.73
2022-09-24T08:33:08.391Z,6.73
2022-09-24T08:35:40.441Z,2.97
2022-09-24T08:38:09.625Z,3.53
2022-09-24T08:40:46.566Z,4.20
2022-09-24T08:43:41.641Z,4.87
2022-09-24T08:46:37.975Z,4.17
2022-09-24T08:49:14.291Z,4.00
2022-09-24T08:51:59.450Z,3.23
2022-09-24T08:54:32.053Z,3.57
2022-09-24T08:57:07.437Z,3.30
2022-09-24T08:59:37.939Z,3.50
2022-09-24T09:02:30.165Z,3.50
2022-09-24T09:05:17.621Z,3.60
2022-09-24T09:08:02.167Z,3.83
2022-09-24T09:10:37.461Z,3.50
2022-09-24T09:13:12.270Z,3.10
2022-09-24T09:15:47.350Z,2.90
2022-09-24T09:18:23.528Z,3.17
2022-09-24T09:20:51.606Z,2.97
2022-09-24T09:23:32.476Z,3.10
2022-09-24T09:26:01.941Z,3.50
2022-09-24T09:28:32.208Z,3.37
2022-09-24T09:31:19.260Z,3.77
2022-09-24T09:34:09.051Z,7.55
2022-09-24T09:36:56.153Z,6.63
2022-09-24T09:39:40.286Z,3.77
2022-09-24T09:42:27.727Z,4.03
2022-09-24T09:44:56.815Z,3.25
2022-09-24T09:47:41.120Z,3.47
2022-09-24T09:50:24.751Z,4.28
2022-09-24T09:52:53.413Z,5.13
2022-09-24T09:55:26.964Z,10.03
2022-09-24T09:58:09.052Z,3.83
2022-09-24T10:00:38.850Z,3.50
2022-09-24T10:03:07.354Z,4.10
2022-09-24T10:05:36.442Z,3.63
2022-09-24T10:08:04.586Z,3.67
2022-09-24T10:10:34.450Z,3.42
2022-09-24T10:13:11.404Z,3.35
2022-09-24T10:15:51.443Z,3.10
2022-09-24T10:18:31.265Z,3.63
2022-09-24T10:21:04.005Z,3.65
2022-09-24T10:23:40.069Z,3.63
2022-09-24T10:26:11.103Z,3.45
2022-09-24T10:29:05.136Z,12.20
2022-09-24T10:31:38.515Z,9.50
2022-09-24T10:34:24.325Z,4.30
2022-09-24T10:36:54.846Z,4.18
2022-09-24T10:39:24.892Z,4.50
2022-09-24T10:41:56.929Z,3.60
2022-09-24T10:44:35.370Z,4.10
2022-09-24T10:47:26.936Z,6.10
2022-09-24T10:50:28.561Z,6.57
2022-09-24T10:53:04.315Z,5.20
2022-09-24T10:55:47.302Z,11.55
2022-09-24T10:58:47.396Z,10.00
2022-09-24T11:01:23.822Z,6.10
2022-09-24T11:04:38.711Z,3.63
2022-09-24T11:07:40.542Z,3.83
2022-09-24T11:10:27.805Z,3.65
2022-09-24T11:13:15.421Z,3.35
2022-09-24T11:16:10.638Z,3.35
2022-09-24T11:18:57.096Z,3.25
2022-09-24T11:21:44.334Z,3.40
2022-09-24T11:24:39.214Z,3.53
2022-09-24T11:27:38.559Z,4.30
2022-09-24T11:30:14.363Z,4.07
2022-09-24T11:33:02.645Z,4.20
2022-09-24T11:35:59.715Z,3.92
2022-09-24T11:38:53.124Z,4.70
2022-09-24T11:41:40.431Z,3.95
2022-09-24T11:44:44.859Z,4.03
2022-09-24T11:47:34.480Z,4.30
2022-09-24T11:50:30.569Z,4.18
2022-09-24T11:53:07.644Z,6.68
2022-09-24T11:55:48.083Z,5.53
2022-09-24T11:58:23.509Z,4.95
2022-09-24T12:00:56.013Z,4.93
2022-09-24T12:03:31.522Z,5.68
2022-09-24T12:06:08.538Z,22.92
2022-09-24T12:08:43.978Z,7.03
2022-09-24T12:11:22.294Z,4.97
2022-09-24T12:13:58.023Z,4.20
2022-09-24T12:16:33.140Z,4.20
2022-09-24T12:19:10.684Z,3.47
2022-09-24T12:21:43.887Z,3.65
2022-09-24T12:24:20.136Z,3.95
2022-09-24T12:26:51.812Z,3.92
2022-09-24T12:29:59.264Z,3.78
2022-09-24T12:32:58.012Z,3.47
2022-09-24T12:35:49.490Z,4.07
2022-09-24T12:38:25.245Z,3.60
2022-09-24T12:41:30.824Z,3.33
2022-09-24T12:44:09.315Z,3.83
2022-09-24T12:46:45.225Z,3.35
2022-09-24T12:49:30.140Z,3.38
2022-09-24T12:52:02.075Z,3.63
2022-09-24T12:54:34.947Z,3.17
2022-09-24T12:57:10.580Z,3.60
2022-09-24T12:59:54.247Z,3.45
2022-09-24T13:02:25.411Z,3.00
2022-09-24T13:05:18.751Z,3.15
2022-09-24T13:08:00.995Z,3.40
2022-09-24T13:10:34.825Z,3.45
2022-09-24T13:13:17.040Z,3.60
2022-09-24T13:16:03.446Z,4.25
2022-09-24T13:18:36.172Z,3.47
2022-09-24T13:21:08.558Z,3.30
2022-09-24T13:23:49.292Z,3.72
2022-09-24T13:26:35.971Z,4.30
2022-09-24T13:29:07.688Z,4.32
2022-09-24T13:31:49.092Z,3.35
2022-09-24T13:34:24.050Z,6.97
2022-09-24T13:36:59.893Z,4.07
2022-09-24T13:39:38.253Z,4.43
2022-09-24T13:42:19.381Z,4.38
2022-09-24T13:44:53.759Z,4.03
2022-09-24T13:47:33.425Z,4.05
2022-09-24T13:50:14.715Z,3.28
2022-09-24T13:52:49.611Z,3.70
2022-09-24T13:55:25.197Z,5.70
2022-09-24T13:57:56.118Z,4.97
2022-09-24T14:00:27.928Z,6.90
2022-09-24T14:03:04.495Z,4.80
2022-09-24T14:05:37.237Z,3.90
2022-09-24T14:08:09.646Z,4.43
2022-09-24T14:10:40.004Z,3.97
2022-09-24T14:13:19.108Z,4.00
2022-09-24T14:15:56.954Z,3.83
2022-09-24T14:18:27.650Z,2.95
2022-09-24T14:21:04.265Z,3.10
2022-09-24T14:23:40.942Z,2.70
2022-09-24T14:26:16.261Z,3.33
2022-09-24T14:28:46.402Z,3.33
2022-09-24T14:31:14.910Z,3.30
2022-09-24T14:33:43.071Z,3.05
2022-09-24T14:36:15.494Z,3.20
2022-09-24T14:38:58.022Z,3.03
2022-09-24T14:41:32.177Z,2.97
2022-09-24T14:44:08.022Z,2.78
2022-09-24T14:46:48.866Z,2.60
2022-09-24T14:49:23.229Z,2.40
2022-09-24T14:51:57.550Z,2.50
2022-09-24T14:54:35.911Z,2.67
2022-09-24T14:57:12.610Z,2.63
2022-09-24T14:59:42.760Z,2.38
2022-09-24T15:02:21.007Z,2.60
2022-09-24T15:04:54.868Z,2.33
2022-09-24T15:07:27.521Z,2.78
2022-09-24T15:10:00.266Z,2.58
2022-09-24T15:12:33.702Z,2.50
2022-09-24T15:15:08.424Z,2.13
2022-09-24T15:17:38.112Z,1.88
2022-09-24T15:20:07.572Z,2.55
2022-09-24T15:22:36.030Z,2.65
2022-09-24T15:25:05.370Z,3.03
2022-09-24T15:27:38.138Z,2.67
2022-09-24T15:30:11.981Z,2.42
2022-09-24T15:32:40.447Z,2.75
2022-09-24T15:35:09.461Z,2.20
2022-09-24T15:37:41.580Z,2.58
2022-09-24T15:40:22.754Z,2.75
2022-09-24T15:42:52.433Z,2.40
2022-09-24T15:45:25.110Z,2.60
2022-09-24T15:47:54.649Z,2.55
2022-09-24T15:50:24.877Z,2.60
2022-09-24T15:52:58.290Z,2.40
2022-09-24T15:55:26.996Z,2.42
2022-09-24T15:57:55.593Z,2.30
2022-09-24T16:00:26.337Z,2.70
2022-09-24T16:03:22.279Z,2.60
2022-09-24T16:05:51.219Z,3.92
2022-09-24T16:08:19.670Z,18.38
2022-09-24T16:10:49.238Z,7.10
2022-09-24T16:13:18.740Z,2.95
2022-09-24T16:15:49.329Z,6.88
2022-09-24T16:18:18.776Z,12.68
2022-09-24T16:20:47.689Z,4.90
2022-09-24T16:23:17.920Z,5.00
2022-09-24T16:25:57.622Z,3.10
2022-09-24T16:28:27.933Z,5.63
2022-09-24T16:30:59.245Z,5.32
2022-09-24T16:33:27.658Z,4.00
2022-09-24T16:35:55.781Z,3.75
2022-09-24T16:38:24.314Z,4.63
2022-09-24T16:41:01.469Z,3.83
2022-09-24T16:43:29.901Z,4.35
2022-09-24T16:46:04.105Z,4.40
2022-09-24T16:48:32.942Z,5.97
2022-09-24T16:51:06.941Z,3.58
2022-09-24T16:53:35.904Z,5.20
2022-09-24T16:56:08.253Z,4.15
2022-09-24T16:58:37.334Z,4.13
2022-09-24T17:01:09.261Z,8.52
2022-09-24T17:03:38.254Z,6.20
2022-09-24T17:06:08.295Z,5.57
2022-09-24T17:08:55.401Z,4.82
2022-09-24T17:11:24.262Z,6.07
2022-09-24T17:13:52.284Z,5.65
2022-09-24T17:16:22.316Z,4.60
2022-09-24T17:18:50.371Z,8.25
2022-09-24T17:21:19.373Z,11.73
2022-09-24T17:23:47.924Z,10.45
2022-09-24T17:26:20.692Z,6.90
2022-09-24T17:28:53.136Z,6.22
2022-09-24T17:31:26.319Z,4.70
2022-09-24T17:33:58.677Z,6.40
2022-09-24T17:36:30.124Z,7.47
2022-09-24T17:38:59.666Z,8.35
2022-09-24T17:41:29.855Z,8.30
2022-09-24T17:44:01.330Z,6.57
2022-09-24T17:46:35.301Z,7.40
2022-09-24T17:49:04.872Z,6.70
2022-09-24T17:51:37.113Z,5.72
2022-09-24T17:54:08.812Z,5.50
2022-09-24T17:56:39.381Z,4.70
2022-09-24T17:59:09.640Z,2.80
2022-09-24T18:01:43.018Z,2.37
2022-09-24T18:04:14.347Z,3.13
2022-09-24T18:06:46.656Z,3.03
2022-09-24T18:09:17.989Z,3.83
2022-09-24T18:11:49.637Z,7.40
2022-09-24T18:14:21.725Z,7.13
2022-09-24T18:16:52.269Z,4.87
2022-09-24T18:19:21.409Z,3.07
2022-09-24T18:21:49.715Z,3.67
2022-09-24T18:24:18.926Z,3.10
2022-09-24T18:26:51.480Z,3.47
2022-09-24T18:29:21.429Z,3.20
2022-09-24T18:31:51.890Z,4.20
2022-09-24T18:34:20.130Z,3.20
2022-09-24T18:36:48.363Z,3.10
2022-09-24T18:39:23.875Z,3.43
2022-09-24T18:41:54.318Z,3.43
2022-09-24T18:44:22.907Z,3.10
2022-09-24T18:46:52.929Z,2.70
2022-09-24T18:49:21.695Z,3.13
2022-09-24T18:51:52.672Z,3.90
2022-09-24T18:54:20.876Z,3.70
2022-09-24T18:56:49.664Z,3.07
2022-09-24T18:59:20.599Z,2.80
2022-09-24T19:01:50.836Z,2.50
2022-09-24T19:04:21.070Z,3.00
2022-09-24T19:06:49.848Z,2.20
2022-09-24T19:09:20.600Z,2.60
2022-09-24T19:11:50.189Z,2.30
2022-09-24T19:14:19.094Z,2.30
2022-09-24T19:16:48.317Z,2.20
2022-09-24T19:19:16.869Z,2.30
2022-09-24T19:21:46.922Z,2.17
2022-09-24T19:24:14.981Z,2.03
2022-09-24T19:26:43.765Z,2.40
2022-09-24T19:29:12.719Z,2.50
2022-09-24T19:31:45.811Z,3.47
2022-09-24T19:34:15.344Z,3.23
2022-09-24T19:36:45.235Z,2.63
2022-09-24T19:39:18.504Z,2.77
2022-09-24T19:41:47.230Z,3.43
2022-09-24T19:44:15.735Z,4.20
2022-09-24T19:46:44.790Z,4.83
2022-09-24T19:49:14.180Z,8.77
2022-09-24T19:51:42.433Z,6.83
2022-09-24T19:54:12.329Z,5.40
2022-09-24T19:56:42.097Z,3.87
2022-09-24T19:59:13.639Z,3.60
2022-09-24T20:01:42.181Z,4.27
2022-09-24T20:04:10.518Z,6.23
2022-09-24T20:06:40.010Z,3.70
2022-09-24T20:09:09.198Z,5.07
2022-09-24T20:11:37.365Z,4.70
2022-09-24T20:14:09.030Z,7.77
2022-09-24T20:16:40.462Z,9.03
2022-09-24T20:19:09.598Z,11.67
2022-09-24T20:21:38.531Z,15.80
2022-09-24T20:24:09.991Z,13.47
2022-09-24T20:26:56.485Z,10.30
2022-09-24T20:29:26.665Z,7.47
2022-09-24T20:31:56.581Z,6.23
2022-09-24T20:34:28.707Z,5.93
2022-09-24T20:36:58.770Z,5.50
2022-09-24T20:39:27.109Z,4.23
2022-09-24T20:41:55.774Z,3.77
2022-09-24T20:44:26.084Z,4.23
2022-09-24T20:46:54.227Z,4.43
2022-09-24T20:49:24.656Z,4.57
2022-09-24T20:51:57.321Z,4.00
2022-09-24T20:54:28.682Z,3.77
2022-09-24T20:56:57.239Z,4.13
2022-09-24T20:59:27.535Z,5.13
2022-09-24T21:01:56.262Z,5.43
2022-09-24T21:04:25.091Z,5.10
2022-09-24T21:06:54.546Z,5.77
2022-09-24T21:09:23.400Z,4.20
2022-09-24T21:11:53.138Z,3.80
2022-09-24T21:14:23.175Z,3.80
2022-09-24T21:16:55.453Z,4.00
2022-09-24T21:19:24.299Z,3.60
2022-09-24T21:21:53.100Z,3.87
2022-09-24T21:24:25.199Z,3.83
2022-09-24T21:27:00.187Z,3.97
2022-09-24T21:29:28.777Z,3.73
2022-09-24T21:31:58.137Z,3.43
2022-09-24T21:34:29.572Z,3.50
2022-09-24T21:36:57.602Z,3.33
2022-09-24T21:39:28.441Z,3.10
2022-09-24T21:41:59.555Z,3.40
2022-09-24T21:44:31.993Z,3.30
2022-09-24T21:47:01.918Z,3.70
2022-09-24T21:49:30.224Z,3.87
2022-09-24T21:51:59.266Z,3.77
2022-09-24T21:54:27.493Z,3.50
2022-09-24T21:56:56.582Z,3.63
2022-09-24T21:59:42.511Z,3.80
2022-09-24T22:02:12.244Z,3.53
2022-09-24T22:04:40.574Z,3.73
2022-09-24T22:07:09.270Z,3.80
2022-09-24T22:09:39.454Z,3.20
2022-09-24T22:12:08.021Z,3.00
2022-09-24T22:14:36.522Z,3.20
2022-09-24T22:17:05.642Z,3.70
2022-09-24T22:19:35.757Z,3.27
2022-09-24T22:22:03.998Z,3.47
2022-09-24T22:24:32.634Z,3.50
2022-09-24T22:27:00.820Z,3.20
2022-09-24T22:29:29.498Z,2.90
2022-09-24T22:31:57.622Z,3.00
2022-09-24T22:34:43.855Z,3.43
2022-09-24T22:37:13.609Z,4.17
2022-09-24T22:39:41.695Z,4.23
2022-09-24T22:42:10.138Z,4.47
2022-09-24T22:44:38.203Z,4.03
2022-09-24T22:47:06.945Z,3.60
2022-09-24T22:49:37.553Z,4.20
2022-09-24T22:52:05.643Z,4.20
2022-09-24T22:54:35.829Z,3.90
2022-09-24T22:57:04.291Z,3.73
2022-09-24T22:59:32.742Z,3.40
2022-09-24T23:02:01.219Z,3.77
2022-09-24T23:04:29.681Z,3.53
2022-09-24T23:06:58.225Z,3.30
2022-09-24T23:09:26.403Z,3.50
2022-09-24T23:11:57.478Z,3.90
2022-09-24T23:14:25.716Z,3.80
2022-09-24T23:16:54.385Z,3.60
2022-09-24T23:19:23.268Z,3.70
2022-09-24T23:21:51.729Z,3.40
2022-09-24T23:24:21.903Z,3.60
2022-09-24T23:26:51.515Z,4.60
2022-09-24T23:29:20.901Z,4.70
2022-09-24T23:31:49.356Z,3.87
2022-09-24T23:34:17.629Z,3.80
2022-09-24T23:36:46.100Z,3.67
2022-09-24T23:39:15.558Z,3.87
2022-09-24T23:41:44.457Z,3.60
2022-09-24T23:44:13.262Z,4.20
2022-09-24T23:46:43.058Z,3.93
2022-09-24T23:49:11.099Z,3.40
2022-09-24T23:51:40.248Z,3.40
2022-09-24T23:54:08.829Z,3.50
2022-09-24T23:56:37.150Z,3.57
2022-09-24T23:59:05.837Z,3.80
